Berkley, MI (48072)

4:31 PM EDT on May 05, 2015 (GMT -0400)
N Crooks / W Maple | | Change Station
CLOSE
Current Station
Personal Weather Station
Location: Clawson, MI
Elevation: 702 ft
Nearby Weather Stations

Elev 702 ft 42.55 °N, 83.16 °W | Updated 1 minute ago

Rain
Rain
52.3 °F
Feels Like 52.3 °F
N
0.0
Wind Variable Wind from NE
Gusts 2.0 mph

Today
High -- | Low -- °F
--% Chance of Precip.
Yesterday
High -- | Low -- °F
Precip. -- in
6:22 AM 8:36 PM
Full, 97% visible
Pressure 30.31 in
Visibility 3.0 miles
Clouds Overcast 2000 ft
Dew Point 49 °F
Humidity 88%
Rainfall 0.40 in
Snow Depth Not available.
UV 2 out of 12
Pollen 8.50 out of 12
Air Quality Not available.
Flu Activity Regional
METAR KVLL 052015Z AUTO 08003KT 3SM RA OVC020 12/10 A3031 RMK AO2 T01150100

More Conditions Fewer Conditions

Pressure 30.31 in
Visibility 3.0 miles
Clouds Overcast 2000 ft
Dew Point 49 °F
Humidity 88%
Rainfall 0.40 in
Snow Depth Not available.
UV 2 out of 12
Pollen 8.50 out of 12
Air Quality Not available.
Flu Activity Regional
METAR KVLL 052015Z AUTO 08003KT 3SM RA OVC020 12/10 A3031 RMK AO2 T01150100

More Conditions Fewer Conditions

10-Day Weather Forecast

Almanac

Astronomy

May. 05, 2015 Rise Set
Actual Time
Civil Twilight
Nautical Twilight
Astronomical Twilight
Moon
Length of Visible Light
Length of Day
Tomorrow will be .
, % of the Moon is Illuminated

Today's Extremes

State Highs State Lows

Community

WunderPhotos

Upload Photos

1,818,970 photos uploaded!

WunderBlogs® & News

Nearby

Air Quality

  Air Quality AQ Index Pollutant
Not available.

Snow Depth

Station Depth Elevation

Earthquake Activity

City Distance Mag. Time & Date
Minimum magnitude displayed is 2.5.

Coastal Water Temperatures

Place Temperature

Stations

Nearby Weather Stations

Station Location Temp. Windchill Dew Point Humidity Wind Precip. Elev Updated Type